Time;durP1;ratioP1;P1;durP2;ratioP2;P2;SDS_P1;SDS_P2;PMS_P1;PMS_P2;Temp;Humidity;BMP_temperature;BMP_pressure;BME280_temperature;BME280_humidity;BME280_pressure;Samples;Min_cycle;Max_cycle;Signal;HPM_P1;HPM_P2
2021/06/16 00:02:15;;;;;;;12.03;2.27;;;;;;;;;;4797550;28;20254;-78
2021/06/16 00:04:39;;;;;;;5.53;1.13;;;12.10;1.00;;;;;;4800108;28;20218;-79
2021/06/16 00:07:02;;;;;;;2.40;0.70;;;;;;;;;;4799982;28;20200;-78
2021/06/16 00:09:24;;;;;;;9.70;2.03;;;13.80;1.00;;;;;;4797854;28;20191;-79
2021/06/16 00:11:47;;;;;;;3.77;0.90;;;;;;;;;;4799699;28;20227;-73
2021/06/16 00:14:10;;;;;;;10.53;2.17;;;12.00;1.00;;;;;;4799064;28;20246;-80
2021/06/16 00:16:33;;;;;;;6.20;1.27;;;;;;;;;;4799494;28;20612;-73
2021/06/16 00:18:56;;;;;;;5.17;1.10;;;;;;;;;;4798448;28;20753;-78
2021/06/16 00:21:20;;;;;;;7.60;1.63;;;12.10;1.00;;;;;;4799490;28;20561;-74
2021/06/16 00:23:43;;;;;;;4.47;1.00;;;;;;;;;;4799234;28;20259;-78
2021/06/16 00:26:05;;;;;;;5.27;1.20;;;12.20;1.00;;;;;;4797871;28;20188;-76
2021/06/16 00:28:28;;;;;;;3.00;0.80;;;;;;;;;;4799107;28;20286;-78
2021/06/16 00:30:50;;;;;;;6.83;1.53;;;12.10;1.00;;;;;;4800732;28;20259;-78
2021/06/16 00:33:13;;;;;;;11.43;2.20;;;12.10;1.00;;;;;;4802599;28;20191;-77
2021/06/16 00:35:35;;;;;;;4.37;1.13;;;12.20;1.00;;;;;;4803171;28;20184;-78
2021/06/16 00:37:59;;;;;;;6.07;1.27;;;12.10;1.00;;;;;;4802937;28;20216;-79
2021/06/16 00:40:25;;;;;;;9.20;1.97;;;12.10;1.00;;;;;;4802547;28;20203;-78
2021/06/16 00:42:47;;;;;;;3.30;0.83;;;;;;;;;;4803132;28;20196;-73
2021/06/16 00:45:11;;;;;;;9.47;1.93;;;12.20;1.00;;;;;;4802781;28;20196;-78
2021/06/16 00:47:34;;;;;;;4.43;1.10;;;;;;;;;;4803534;28;20251;-78
2021/06/16 00:49:56;;;;;;;4.73;1.17;;;12.10;1.00;;;;;;4801518;28;20252;-78
2021/06/16 00:52:19;;;;;;;10.83;2.23;;;12.60;1.00;;;;;;4802831;28;20239;-78
2021/06/16 00:54:43;;;;;;;4.20;1.07;;;12.40;1.00;;;;;;4803165;28;20319;-79
2021/06/16 00:57:06;;;;;;;4.60;1.13;;;12.40;1.00;;;;;;4802051;28;20192;-79
2021/06/16 00:59:33;;;;;;;2.83;0.80;;;12.50;1.00;;;;;;4799711;28;20639;-79
2021/06/16 01:01:56;;;;;;;4.47;1.17;;;;;;;;;;4801694;28;20204;-79
2021/06/16 01:04:23;;;;;;;10.20;2.20;;;12.60;1.00;;;;;;4801989;28;20189;-78
2021/06/16 01:06:51;;;;;;;4.27;1.00;;;12.60;1.00;;;;;;4802442;28;20954;-78
2021/06/16 01:09:17;;;;;;;10.33;2.10;;;12.60;1.00;;;;;;4801819;28;20220;-77
2021/06/16 01:11:55;;;;;;;4.23;0.97;;;12.70;1.00;;;;;;4802668;28;20197;-79
2021/06/16 01:14:22;;;;;;;8.17;1.80;;;12.70;1.00;;;;;;4802221;28;20239;-78
2021/06/16 01:16:51;;;;;;;5.90;1.40;;;12.80;1.00;;;;;;4802284;28;20258;-79
2021/06/16 01:19:25;;;;;;;8.93;2.07;;;12.70;1.00;;;;;;4801397;28;20666;-78
2021/06/16 01:21:54;;;;;;;2.10;0.60;;;12.90;1.00;;;;;;4802505;28;20247;-75
2021/06/16 01:24:19;;;;;;;9.93;2.10;;;13.20;1.00;;;;;;4801775;28;20235;-79
2021/06/16 01:26:45;;;;;;;4.93;1.20;;;12.90;1.00;;;;;;4802079;28;20666;-78
2021/06/16 01:29:12;;;;;;;3.80;0.97;;;12.90;1.00;;;;;;4801350;28;20267;-78
2021/06/16 01:31:35;;;;;;;4.93;1.17;;;;;;;;;;4802226;28;20533;-77
2021/06/16 01:33:58;;;;;;;4.30;1.17;;;13.00;1.00;;;;;;4802308;28;20192;-78
2021/06/16 01:36:24;;;;;;;9.07;2.03;;;12.20;1.00;;;;;;4801705;28;20234;-79
2021/06/16 01:38:47;;;;;;;4.33;1.07;;;13.00;1.00;;;;;;4801890;28;20613;-75
2021/06/16 01:41:12;;;;;;;7.17;1.57;;;13.00;1.00;;;;;;4801555;28;20254;-78
2021/06/16 01:43:36;;;;;;;3.33;0.90;;;13.10;1.00;;;;;;4801507;28;20197;-77
2021/06/16 01:46:03;;;;;;;4.83;1.20;;;13.00;1.00;;;;;;4801186;28;20188;-78
2021/06/16 01:48:26;;;;;;;9.40;2.13;;;12.90;1.00;;;;;;4801429;28;20259;-79
2021/06/16 01:50:53;;;;;;;4.07;1.00;;;13.10;1.00;;;;;;4801819;28;20205;-77
2021/06/16 01:53:16;;;;;;;6.90;1.53;;;13.10;1.00;;;;;;4801954;28;20658;-79
2021/06/16 01:55:39;;;;;;;3.83;0.93;;;13.20;1.00;;;;;;4801668;28;20709;-79
2021/06/16 01:58:02;;;;;;;4.47;1.10;;;13.30;1.00;;;;;;4798693;28;20192;-76
2021/06/16 02:00:27;;;;;;;23.13;4.80;;;13.20;1.00;;;;;;4799803;28;20287;-72
2021/06/16 02:02:50;;;;;;;3.40;0.90;;;13.20;1.00;;;;;;4802007;28;20192;-79
2021/06/16 02:05:17;;;;;;;10.17;2.17;;;13.20;1.00;;;;;;4800956;28;20247;-79
2021/06/16 02:07:43;;;;;;;4.97;1.23;;;13.20;1.00;;;;;;4801280;28;20240;-79
2021/06/16 02:10:07;;;;;;;4.20;1.03;;;13.20;1.00;;;;;;4801260;28;20721;-79
2021/06/16 02:12:30;;;;;;;3.57;0.97;;;13.10;1.00;;;;;;4799427;28;20613;-78
2021/06/16 02:14:58;;;;;;;4.03;1.07;;;13.10;1.00;;;;;;4801126;28;20188;-76
2021/06/16 02:17:22;;;;;;;7.07;1.67;;;13.60;1.00;;;;;;4801120;28;20200;-79
2021/06/16 02:19:47;;;;;;;6.33;1.53;;;13.30;1.00;;;;;;4801213;28;20263;-78
2021/06/16 02:22:10;;;;;;;7.70;1.77;;;;;;;;;;4800828;28;20207;-79
2021/06/16 02:24:33;;;;;;;4.40;1.13;;;;;;;;;;4801558;28;20200;-73
2021/06/16 02:26:56;;;;;;;3.83;0.97;;;13.30;1.00;;;;;;4801493;28;20188;-77
2021/06/16 02:29:18;;;;;;;8.67;1.93;;;;;;;;;;4800488;28;20208;-75
2021/06/16 02:31:42;;;;;;;2.80;0.73;;;13.30;1.00;;;;;;4801325;28;20260;-79
2021/06/16 02:34:06;;;;;;;3.43;0.97;;;13.20;1.00;;;;;;4800837;28;20646;-78
2021/06/16 02:36:34;;;;;;;4.20;1.20;;;13.20;1.00;;;;;;4800857;28;20263;-78
2021/06/16 02:39:01;;;;;;;5.03;1.20;;;13.30;1.00;;;;;;4800676;28;20278;-79
2021/06/16 02:41:24;;;;;;;7.73;1.93;;;13.30;1.00;;;;;;4800228;28;20270;-79
2021/06/16 02:43:47;;;;;;;2.37;0.87;;;13.20;1.00;;;;;;4801187;28;20258;-74
2021/06/16 02:46:12;;;;;;;6.17;1.40;;;13.20;1.00;;;;;;4800356;28;20238;-79
2021/06/16 02:48:35;;;;;;;3.27;0.80;;;13.20;1.00;;;;;;4800456;28;20646;-78
2021/06/16 02:50:59;;;;;;;5.87;1.47;;;13.30;1.00;;;;;;4800628;28;20196;-79
2021/06/16 02:53:25;;;;;;;7.00;1.70;;;12.90;1.00;;;;;;4799834;28;20243;-78
2021/06/16 02:55:50;;;;;;;2.10;0.70;;;13.30;1.00;;;;;;4799926;28;20188;-74
2021/06/16 02:58:15;;;;;;;6.97;1.67;;;12.70;1.00;;;;;;4799612;28;20280;-77
2021/06/16 03:00:37;;;;;;;32.20;7.10;;;12.90;1.00;;;;;;4798796;28;20275;-77
2021/06/16 03:03:02;;;;;;;3.60;0.97;;;12.10;1.00;;;;;;4800452;28;20227;-78
2021/06/16 03:05:27;;;;;;;6.47;1.67;;;12.80;1.00;;;;;;4798904;28;20196;-79
2021/06/16 03:07:54;;;;;;;4.93;1.23;;;12.70;1.00;;;;;;4809857;28;20642;-79
2021/06/16 03:10:17;;;;;;;8.27;1.93;;;12.80;1.00;;;;;;4799841;28;20196;-77
2021/06/16 03:12:41;;;;;;;3.63;0.97;;;12.70;1.00;;;;;;4800707;28;20255;-78
2021/06/16 03:15:05;;;;;;;3.40;0.93;;;12.30;1.00;;;;;;4800661;28;20269;-76
2021/06/16 03:17:28;;;;;;;2.10;0.70;;;12.60;1.00;;;;;;4800246;28;20733;-77
2021/06/16 03:19:51;;;;;;;2.77;0.80;;;12.60;1.00;;;;;;4799659;28;20220;-77
2021/06/16 03:22:14;;;;;;;9.23;2.03;;;12.60;1.00;;;;;;4797656;28;20184;-77
2021/06/16 03:24:39;;;;;;;3.80;1.10;;;12.60;1.00;;;;;;4800314;28;20192;-77
2021/06/16 03:27:02;;;;;;;4.53;1.10;;;12.90;1.00;;;;;;4800113;28;20195;-78
2021/06/16 03:29:25;;;;;;;7.57;1.80;;;12.60;1.00;;;;;;4798831;28;20212;-76
2021/06/16 03:31:48;;;;;;;1.77;0.60;;;12.50;1.00;;;;;;4799600;28;20788;-72
2021/06/16 03:34:11;;;;;;;7.60;1.77;;;12.50;1.00;;;;;;4799566;28;20247;-79
2021/06/16 03:36:34;;;;;;;3.07;0.87;;;;;;;;;;4799973;28;20228;-78
2021/06/16 03:38:57;;;;;;;4.30;1.17;;;;;;;;;;4800084;28;20239;-79
2021/06/16 03:41:22;;;;;;;9.47;2.27;;;12.60;1.00;;;;;;4798814;28;20212;-79
2021/06/16 03:43:48;;;;;;;4.20;1.10;;;12.80;1.00;;;;;;4797560;28;20199;-77
2021/06/16 03:46:11;;;;;;;6.50;1.60;;;;;;;;;;4799683;28;20213;-77
2021/06/16 03:48:35;;;;;;;3.60;0.97;;;12.80;1.00;;;;;;4800159;28;20272;-77
2021/06/16 03:50:58;;;;;;;4.13;0.97;;;13.00;1.00;;;;;;4799616;28;20859;-79
2021/06/16 03:53:21;;;;;;;6.90;1.77;;;13.00;1.00;;;;;;4799148;28;20251;-79
2021/06/16 03:55:46;;;;;;;3.87;1.07;;;13.00;1.00;;;;;;4782015;28;20212;-78
2021/06/16 03:58:11;;;;;;;3.43;0.97;;;13.10;1.00;;;;;;4808760;28;20188;-77
2021/06/16 04:00:34;;;;;;;36.13;8.00;;;13.10;1.00;;;;;;4800628;28;20212;-78
2021/06/16 04:02:57;;;;;;;3.83;1.00;;;13.20;1.00;;;;;;4798502;28;20231;-79
2021/06/16 04:05:20;;;;;;;5.53;1.37;;;13.40;1.00;;;;;;4799029;28;20204;-79
2021/06/16 04:07:42;;;;;;;3.87;1.00;;;;;;;;;;4803561;28;21000;-78
2021/06/16 04:10:07;;;;;;;5.47;1.37;;;13.60;1.00;;;;;;4802971;28;20650;-79
2021/06/16 04:12:50;;;;;;;3.23;0.93;;;13.40;1.00;;;;;;4799327;28;20196;-78
2021/06/16 04:15:34;;;;;;;3.40;0.90;;;13.60;1.00;;;;;;4800468;28;20560;-76
2021/06/16 04:18:17;;;;;;;7.33;1.83;;;13.70;1.00;;;;;;4802900;28;20210;-78
2021/06/16 04:21:00;;;;;;;4.47;1.17;;;13.60;1.00;;;;;;4803155;28;20209;-79
2021/06/16 04:23:43;;;;;;;4.07;1.00;;;;;;;;;;4797967;28;20520;-77
2021/06/16 04:26:05;;;;;;;4.80;1.30;;;13.80;1.00;;;;;;4802864;28;20190;-78
2021/06/16 04:28:28;;;;;;;3.57;0.90;;;13.70;1.00;;;;;;4794504;28;20305;-77
2021/06/16 04:30:52;;;;;;;2.97;0.87;;;14.00;1.00;;;;;;4802693;28;20239;-78
2021/06/16 04:33:15;;;;;;;6.57;1.63;;;14.40;1.00;;;;;;4802652;28;20250;-78
2021/06/16 04:35:37;;;;;;;2.97;0.87;;;14.20;1.00;;;;;;4801668;28;20550;-79
2021/06/16 04:38:00;;;;;;;3.33;0.97;;;14.40;1.00;;;;;;4803008;28;20176;-79
2021/06/16 04:40:22;;;;;;;9.50;2.20;;;14.40;1.00;;;;;;4801222;28;20355;-77
2021/06/16 04:42:45;;;;;;;3.93;1.07;;;14.20;1.00;;;;;;4802340;28;20192;-78
2021/06/16 04:45:08;;;;;;;3.17;0.87;;;14.50;1.00;;;;;;4802434;28;20594;-76
2021/06/16 04:47:33;;;;;;;3.13;0.80;;;14.60;1.00;;;;;;4802909;28;20239;-80
2021/06/16 04:49:55;;;;;;;3.77;0.90;;;14.30;1.00;;;;;;4802833;28;20188;-80
2021/06/16 04:52:18;;;;;;;8.17;1.87;;;14.60;1.00;;;;;;4802193;28;20192;-71
2021/06/16 04:54:40;;;;;;;3.00;0.90;;;13.90;1.00;;;;;;4793910;28;20232;-80
2021/06/16 04:57:05;;;;;;;4.07;1.10;;;15.20;1.00;;;;;;4803003;28;20188;-72
2021/06/16 04:59:27;;;;;;;2.27;0.70;;;;;;;;;;4801825;28;20192;-76
2021/06/16 05:01:50;;;;;;;3.87;1.00;;;15.00;99.90;;;;;;4800408;28;20584;-77
2021/06/16 05:04:14;;;;;;;5.43;1.27;;;15.20;99.90;;;;;;4776749;28;20237;-77
2021/06/16 05:06:36;;;;;;;2.87;0.70;;;15.60;99.90;;;;;;4802394;28;20242;-78
2021/06/16 05:08:59;;;;;;;4.27;1.07;;;15.60;99.90;;;;;;4802334;28;20199;-78
2021/06/16 05:11:21;;;;;;;5.13;1.23;;;15.00;99.90;;;;;;4802074;28;20600;-78
2021/06/16 05:13:44;;;;;;;4.67;1.07;;;16.00;1.00;;;;;;4802153;28;20200;-77
2021/06/16 05:16:07;;;;;;;4.33;1.17;;;;;;;;;;4802348;28;20536;-78
2021/06/16 05:18:30;;;;;;;2.40;0.70;;;;;;;;;;4795690;28;20253;-75
2021/06/16 05:20:54;;;;;;;2.67;0.73;;;15.70;99.90;;;;;;4798957;28;20247;-77
2021/06/16 05:23:17;;;;;;;7.03;1.53;;;15.50;1.00;;;;;;4801968;28;20192;-79
2021/06/16 05:25:41;;;;;;;5.97;1.27;;;16.00;99.90;;;;;;4802749;28;20258;-78
2021/06/16 05:28:04;;;;;;;5.47;1.33;;;;;;;;;;4802035;28;20246;-79
2021/06/16 05:30:27;;;;;;;7.43;1.77;;;16.20;96.30;;;;;;4792268;28;20534;-76
2021/06/16 05:32:49;;;;;;;2.10;0.53;;;;;;;;;;4801841;28;20725;-74
2021/06/16 05:35:12;;;;;;;5.77;1.17;;;16.60;1.00;;;;;;4801802;28;20188;-78
2021/06/16 05:37:36;;;;;;;3.90;0.93;;;16.60;99.90;;;;;;4801609;28;20232;-77
2021/06/16 05:39:59;;;;;;;3.20;0.80;;;16.80;1.00;;;;;;4801761;28;20208;-79
2021/06/16 05:42:21;;;;;;;8.13;1.83;;;;;;;;;;4800662;28;20212;-77
2021/06/16 05:44:44;;;;;;;8.17;1.80;;;;;;;;;;4801048;28;20180;-76
2021/06/16 05:47:07;;;;;;;5.10;1.20;;;17.40;99.90;;;;;;4801064;28;20614;-77
2021/06/16 05:49:30;;;;;;;4.63;1.10;;;;;;;;;;4801146;28;20243;-77
2021/06/16 05:51:53;;;;;;;4.57;1.03;;;16.90;1.00;;;;;;4801213;28;20204;-78
2021/06/16 05:54:16;;;;;;;7.27;1.60;;;17.60;1.00;;;;;;4800971;28;20267;-79
2021/06/16 05:56:40;;;;;;;2.93;0.70;;;;;;;;;;4802138;28;20286;-79
2021/06/16 05:59:02;;;;;;;5.63;1.33;;;17.60;1.00;;;;;;4802136;28;20602;-73
2021/06/16 06:01:25;;;;;;;7.83;1.73;;;;;;;;;;4799774;28;20631;-79
2021/06/16 06:03:47;;;;;;;3.77;0.90;;;18.00;99.90;;;;;;4816463;28;20191;-74
2021/06/16 06:06:10;;;;;;;2.53;0.60;;;;;;;;;;4801821;28;20196;-78
2021/06/16 06:08:32;;;;;;;2.37;0.60;;;18.40;1.00;;;;;;4802169;28;20188;-77
2021/06/16 06:10:57;;;;;;;2.80;0.70;;;18.20;99.90;;;;;;4802127;28;20192;-79
2021/06/16 06:13:21;;;;;;;6.10;1.43;;;18.20;1.00;;;;;;4801520;28;20216;-80
2021/06/16 06:15:43;;;;;;;4.80;1.03;;;18.90;1.00;;;;;;4802031;28;20255;-78
2021/06/16 06:18:06;;;;;;;4.33;1.07;;;;;;;;;;4801626;28;20196;-79
2021/06/16 06:20:29;;;;;;;3.57;0.83;;;;;;;;;;4801357;28;20189;-79
2021/06/16 06:22:52;;;;;;;7.23;1.60;;;;;;;;;;4800355;28;20231;-79
2021/06/16 06:25:14;;;;;;;10.97;2.20;;;19.40;99.90;;;;;;4773879;28;20194;-77
2021/06/16 06:27:39;;;;;;;3.63;0.80;;;19.50;1.00;;;;;;4801131;28;20729;-80
2021/06/16 06:30:02;;;;;;;5.80;1.30;;;;;;;;;;4800675;28;20575;-80
2021/06/16 06:32:24;;;;;;;7.63;1.70;;;19.20;99.90;;;;;;4800117;28;20189;-80
2021/06/16 06:34:47;;;;;;;3.80;0.87;;;;;;;;;;4801049;28;20193;-80
2021/06/16 06:37:09;;;;;;;4.37;0.93;;;;;;;;;;4800293;28;20278;-73
2021/06/16 06:39:32;;;;;;;3.63;0.80;;;20.40;1.00;;;;;;4800857;28;20644;-77
2021/06/16 06:41:54;;;;;;;4.53;0.97;;;19.80;19.90;;;;;;4800800;28;20251;-79
2021/06/16 06:44:18;;;;;;;7.00;1.40;;;20.20;99.90;;;;;;4795604;28;20232;-77
2021/06/16 06:46:41;;;;;;;5.60;1.30;;;20.40;99.90;;;;;;4799598;28;20262;-79
2021/06/16 06:49:04;;;;;;;4.90;1.13;;;;;;;;;;4799042;28;20536;-78
2021/06/16 06:51:26;;;;;;;6.23;1.37;;;20.20;1.00;;;;;;4800061;28;20192;-78
2021/06/16 06:53:49;;;;;;;1.63;0.30;;;21.20;99.90;;;;;;4799769;28;20194;-77
2021/06/16 06:56:12;;;;;;;17.50;3.50;;;;;;;;;;4787537;28;20198;-79
2021/06/16 06:58:35;;;;;;;7.27;1.57;;;;;;;;;;4791121;28;20246;-78
2021/06/16 07:00:59;;;;;;;5.10;1.03;;;21.00;1.00;;;;;;4780179;28;20235;-76
2021/06/16 07:03:22;;;;;;;10.93;2.20;;;;;;;;;;4799180;28;20206;-79
2021/06/16 07:05:45;;;;;;;6.20;1.30;;;;;;;;;;4799008;28;20187;-79
2021/06/16 07:08:08;;;;;;;7.07;1.40;;;;;;;;;;4799399;28;20191;-76
2021/06/16 07:10:30;;;;;;;2.70;0.57;;;;;;;;;;4798669;28;20192;-78
2021/06/16 07:12:53;;;;;;;7.43;1.47;;;;;;;;;;4798935;28;20590;-79
2021/06/16 07:15:16;;;;;;;11.57;2.10;;;;;;;;;;4798470;28;20724;-77
2021/06/16 07:17:40;;;;;;;9.33;1.70;;;23.10;1.00;;;;;;4774368;28;20256;-78
2021/06/16 07:20:03;;;;;;;11.60;2.10;;;;;;;;;;4798364;28;20717;-72
2021/06/16 07:22:26;;;;;;;10.53;1.80;;;;;;;;;;4799328;28;20251;-77
2021/06/16 07:24:48;;;;;;;8.30;1.63;;;;;;;;;;4798634;28;20235;-76
2021/06/16 07:27:11;;;;;;;6.60;1.20;;;;;;;;;;4797812;28;20251;-79
2021/06/16 07:29:34;;;;;;;6.33;1.17;;;;;;;;;;4790794;28;20221;-76
2021/06/16 07:31:57;;;;;;;4.97;0.93;;;;;;;;;;4799457;28;20688;-78
2021/06/16 07:34:21;;;;;;;13.90;2.47;;;24.90;99.90;;;;;;4798899;28;20194;-76
2021/06/16 07:36:44;;;;;;;11.33;2.13;;;;;;;;;;4798216;28;20314;-77
2021/06/16 07:39:07;;;;;;;6.93;1.27;;;;;;;;;;4798427;28;20258;-78
2021/06/16 07:41:29;;;;;;;8.40;1.53;;;;;;;;;;4799087;28;20313;-79
2021/06/16 07:43:52;;;;;;;5.43;1.00;;;;;;;;;;4790878;28;20213;-78
2021/06/16 07:46:15;;;;;;;9.47;1.70;;;;;;;;;;4797175;28;20196;-77
2021/06/16 07:48:38;;;;;;;10.87;1.90;;;;;;;;;;4797875;28;20195;-78
2021/06/16 07:51:02;;;;;;;5.43;1.10;;;25.90;99.90;;;;;;4799375;28;20191;-77
2021/06/16 07:53:25;;;;;;;10.73;1.93;;;;;;;;;;4797788;28;20192;-81
2021/06/16 07:55:48;;;;;;;8.07;1.43;;;;;;;;;;4798266;28;20236;-75
2021/06/16 07:58:14;;;;;;;8.47;1.57;;;;;;;;;;4798462;28;20183;-79
2021/06/16 08:00:37;;;;;;;51.03;8.83;;;;;;;;;;4796832;28;20210;-80
2021/06/16 08:02:59;;;;;;;7.57;1.40;;;;;;;;;;4799222;28;20239;-79
2021/06/16 08:05:22;;;;;;;13.53;2.30;;;;;;;;;;4797700;28;20248;-79
2021/06/16 08:07:46;;;;;;;7.73;1.33;;;25.40;99.90;;;;;;4799280;28;20260;-80
2021/06/16 08:10:09;;;;;;;6.47;1.20;;;25.30;99.90;;;;;;4799255;28;20238;-80
2021/06/16 08:12:32;;;;;;;6.13;1.13;;;;;;;;;;4797727;28;20232;-75
2021/06/16 08:14:55;;;;;;;7.07;1.40;;;;;;;;;;4796375;28;20233;-80
2021/06/16 08:17:18;;;;;;;11.77;2.07;;;;;;;;;;4799734;28;20184;-78
2021/06/16 08:19:41;;;;;;;10.27;1.87;;;;;;;;;;4810298;28;20555;-80
2021/06/16 08:22:05;;;;;;;7.07;1.33;;;25.40;99.90;;;;;;4798000;28;20632;-79
2021/06/16 08:24:29;;;;;;;19.20;3.30;;;25.50;99.90;;;;;;4798440;28;20190;-78
2021/06/16 08:26:52;;;;;;;10.30;1.90;;;;;;;;;;4798192;28;20188;-79
2021/06/16 08:29:15;;;;;;;7.17;1.20;;;;;;;;;;4798206;28;20567;-80
2021/06/16 08:31:38;;;;;;;7.13;1.30;;;25.70;99.90;;;;;;4800924;28;20617;-80
2021/06/16 08:34:01;;;;;;;6.97;1.33;;;;;;;;;;4797787;28;20272;-79
2021/06/16 08:36:23;;;;;;;14.30;2.47;;;;;;;;;;4800502;28;20637;-79
2021/06/16 08:38:46;;;;;;;14.07;2.43;;;;;;;;;;4801538;28;20191;-77
2021/06/16 08:41:10;;;;;;;6.27;1.20;;;26.00;99.90;;;;;;4798197;28;20194;-77
2021/06/16 08:43:41;;;;;;;5.50;1.10;;;26.20;99.90;;;;;;4805137;28;20611;-74
2021/06/16 08:46:06;;;;;;;6.23;1.17;;;26.30;99.90;;;;;;4797863;28;20254;-77
2021/06/16 08:48:29;;;;;;;10.23;1.87;;;;;;;;;;4790354;28;20192;-76
2021/06/16 08:50:52;;;;;;;8.73;1.67;;;;;;;;;;4791009;28;20207;-77
2021/06/16 08:53:14;;;;;;;8.03;1.37;;;;;;;;;;4800581;28;20266;-77
2021/06/16 08:55:37;;;;;;;9.30;1.47;;;;;;;;;;4801549;28;20242;-80
2021/06/16 08:58:01;;;;;;;16.27;2.27;;;27.20;99.90;;;;;;4801686;28;20242;-79
2021/06/16 09:00:24;;;;;;;41.70;5.10;;;27.60;99.90;;;;;;4800843;28;20501;-80
2021/06/16 09:02:47;;;;;;;20.40;2.60;;;;;;;;;;4801905;28;20179;-79
2021/06/16 09:05:11;;;;;;;15.83;2.10;;;28.20;99.90;;;;;;4801666;28;20188;-79
2021/06/16 09:07:37;;;;;;;17.20;2.43;;;28.70;99.90;;;;;;4801512;28;20216;-76
2021/06/16 09:10:09;;;;;;;17.97;2.83;;;29.10;99.90;;;;;;4800254;28;20199;-77
2021/06/16 09:12:33;;;;;;;29.33;5.47;;;29.60;99.90;;;;;;4794478;28;20213;-77
2021/06/16 09:14:57;;;;;;;19.23;9.57;;;30.00;99.90;;;;;;4800693;28;20190;-77
2021/06/16 09:17:22;;;;;;;31.60;9.50;;;32.10;99.90;;;;;;4801088;28;20791;-74
2021/06/16 09:19:51;;;;;;;23.23;4.20;;;31.10;99.90;;;;;;4800567;28;20207;-78
2021/06/16 09:22:14;;;;;;;13.40;1.80;;;;;;;;;;4801163;28;20218;-76
2021/06/16 09:24:42;;;;;;;40.80;5.10;;;32.40;99.90;;;;;;4799417;28;20259;-76
2021/06/16 09:27:05;;;;;;;16.83;2.17;;;;;;;;;;4801253;28;20187;-76
2021/06/16 09:29:30;;;;;;;26.83;3.20;;;;;;;;;;4795216;28;20207;-76
2021/06/16 09:32:03;;;;;;;17.70;2.28;;;36.60;99.90;;;;;;4799511;28;20199;-72
2021/06/16 09:34:26;;;;;;;37.30;4.63;;;;;;;;;;4799485;28;20200;-77
2021/06/16 09:36:52;;;;;;;19.50;2.55;;;39.60;99.90;;;;;;4801144;28;20220;-72
2021/06/16 09:39:15;;;;;;;10.02;1.42;;;40.90;99.90;;;;;;4801361;28;20192;-76
2021/06/16 09:41:52;;;;;;;17.02;2.30;;;41.80;1.00;;;;;;4800855;28;20196;-75
2021/06/16 09:44:44;;;;;;;16.15;2.13;;;42.80;99.90;;;;;;4800182;28;20207;-75
2021/06/16 09:47:11;;;;;;;15.95;2.75;;;42.30;99.90;;;;;;4799941;28;20204;-77
2021/06/16 09:49:47;;;;;;;10.43;1.70;;;42.20;99.90;;;;;;4801153;28;20192;-77
2021/06/16 09:52:30;;;;;;;22.13;3.00;;;43.10;99.90;;;;;;4800042;28;20672;-77
2021/06/16 09:54:53;;;;;;;24.08;3.25;;;;;;;;;;4781925;28;20235;-74
2021/06/16 09:57:18;;;;;;;20.20;2.75;;;44.70;99.90;;;;;;4800719;28;20646;-76
2021/06/16 09:59:44;;;;;;;11.88;1.73;;;45.50;99.90;;;;;;4800820;28;20188;-77
2021/06/16 10:02:16;;;;;;;15.40;2.13;;;46.00;99.90;;;;;;4798253;28;20184;-75
2021/06/16 10:04:44;;;;;;;43.40;5.88;;;46.40;99.90;;;;;;4801265;28;20850;-76
2021/06/16 10:07:16;;;;;;;15.68;2.53;;;46.70;99.90;;;;;;4800113;28;20247;-76
2021/06/16 10:09:39;;;;;;;19.00;3.05;;;47.50;99.90;;;;;;4800711;28;20250;-76
2021/06/16 10:12:02;;;;;;;18.17;3.47;;;;;;;;;;4801880;28;20250;-77
2021/06/16 10:14:25;;;;;;;38.28;8.65;;;;;;;;;;4814281;28;20223;-77
2021/06/16 10:16:49;;;;;;;23.30;9.27;;;48.70;99.90;;;;;;4799628;28;20234;-72
2021/06/16 10:19:14;;;;;;;19.20;9.27;;;49.20;99.90;;;;;;4809039;28;20227;-77
2021/06/16 10:21:37;;;;;;;27.88;25.52;;;;;;;;;;4800396;28;20188;-77
2021/06/16 10:24:00;;;;;;;115.57;107.90;;;;;;;;;;4800004;28;20200;-76
2021/06/16 10:26:26;;;;;;;159.13;148.63;;;49.90;99.90;;;;;;4798326;28;20250;-73
2021/06/16 10:28:54;;;;;;;133.02;123.97;;;50.70;99.90;;;;;;4800874;28;20629;-75
2021/06/16 10:31:19;;;;;;;96.55;89.32;;;51.40;99.90;;;;;;4801568;28;20191;-76
2021/06/16 10:33:43;;;;;;;52.60;48.53;;;51.50;99.90;;;;;;4800130;28;20215;-76
2021/06/16 10:36:14;;;;;;;44.60;41.15;;;51.30;99.90;;;;;;4798322;28;20219;-78
2021/06/16 10:38:37;;;;;;;56.00;51.85;;;51.30;99.90;;;;;;4798786;28;20595;-76
2021/06/16 10:41:01;;;;;;;47.58;43.63;;;;;;;;;;4802517;28;20250;-78
2021/06/16 10:43:28;;;;;;;38.00;29.35;;;50.50;99.90;;;;;;4797833;28;20199;-77
2021/06/16 10:46:05;;;;;;;43.45;36.97;;;50.50;99.90;;;;;;4798694;28;20187;-77
2021/06/16 10:48:51;;;;;;;42.95;37.17;;;50.50;99.90;;;;;;4794648;28;20200;-78
2021/06/16 10:51:34;;;;;;;37.42;34.80;;;50.90;99.90;;;;;;4798554;28;20191;-78
2021/06/16 10:54:18;;;;;;;38.13;34.78;;;51.00;99.90;;;;;;4800036;28;20215;-77
2021/06/16 10:56:48;;;;;;;37.47;27.73;;;50.80;99.90;;;;;;4792896;28;20250;-77
2021/06/16 10:59:13;;;;;;;46.38;42.78;;;;;;;;;;4796900;28;20192;-75
2021/06/16 11:01:46;;;;;;;37.28;34.22;;;49.90;99.90;;;;;;4797398;28;20191;-76
2021/06/16 11:04:11;;;;;;;43.03;38.97;;;50.20;99.90;;;;;;4799412;28;20214;-76
2021/06/16 11:06:40;;;;;;;36.53;33.65;;;50.60;99.90;;;;;;4794727;28;20200;-75
2021/06/16 11:09:08;;;;;;;43.85;40.15;;;50.90;99.90;;;;;;4797520;28;20600;-73
2021/06/16 11:12:04;;;;;;;65.25;60.13;;;51.30;99.90;;;;;;4792522;28;20230;-78
2021/06/16 11:14:47;;;;;;;66.75;48.38;;;52.20;99.90;;;;;;4788727;28;20224;-75
2021/06/16 11:17:11;;;;;;;43.67;39.72;;;51.90;99.90;;;;;;4799109;28;20195;-74
2021/06/16 11:19:42;;;;;;;83.40;78.15;;;51.80;99.90;;;;;;4798463;28;20191;-75
2021/06/16 11:22:26;;;;;;;60.60;56.45;;;50.70;99.90;;;;;;4799442;28;20215;-76
2021/06/16 11:25:14;;;;;;;78.47;72.38;;;48.60;99.90;;;;;;4793757;28;20592;-77
2021/06/16 11:27:57;;;;;;;22.40;19.35;;;45.20;99.90;;;;;;4793325;28;20622;-77
2021/06/16 11:30:32;;;;;;;24.58;3.72;;;42.80;99.90;;;;;;4796717;28;20195;-76
2021/06/16 11:33:32;;;;;;;18.00;2.45;;;41.10;99.90;;;;;;4814346;28;20183;-78
2021/06/16 11:35:59;;;;;;;13.98;2.35;;;39.00;99.90;;;;;;4806030;28;20194;-77
2021/06/16 11:38:29;;;;;;;21.08;2.83;;;38.00;99.90;;;;;;4800213;28;20180;-76
2021/06/16 11:40:52;;;;;;;14.50;1.90;;;;;;;;;;4798152;28;20819;-75
2021/06/16 11:43:28;;;;;;;16.73;2.25;;;36.30;99.90;;;;;;4798254;28;20199;-72
2021/06/16 11:45:51;;;;;;;14.68;1.98;;;;;;;;;;4789663;28;20207;-75
2021/06/16 11:48:17;;;;;;;16.88;2.30;;;34.40;99.90;;;;;;4797578;28;20188;-76
2021/06/16 11:50:40;;;;;;;23.48;3.10;;;33.90;99.90;;;;;;4797860;28;20246;-74
2021/06/16 11:53:06;;;;;;;13.68;1.90;;;33.20;99.90;;;;;;4798365;28;20180;-74
2021/06/16 11:55:43;;;;;;;21.60;2.88;;;32.70;99.90;;;;;;4791198;28;20188;-76
2021/06/16 11:58:23;;;;;;;9.35;1.33;;;32.10;99.90;;;;;;4798231;28;20234;-76
2021/06/16 12:00:46;;;;;;;43.55;5.68;;;;;;;;;;4793821;28;20191;-77
2021/06/16 12:03:15;;;;;;;12.10;1.70;;;31.00;99.90;;;;;;4798208;28;20188;-79
2021/06/16 12:05:38;;;;;;;5.88;0.93;;;;;;;;;;4817376;28;20198;-76
2021/06/16 12:08:04;;;;;;;12.18;1.73;;;30.60;99.90;;;;;;4809335;28;20283;-79
2021/06/16 12:10:28;;;;;;;12.38;1.75;;;30.40;99.90;;;;;;4798728;28;20195;-79
2021/06/16 12:12:52;;;;;;;22.20;3.13;;;30.50;99.90;;;;;;4790264;28;20291;-74
2021/06/16 12:15:19;;;;;;;14.60;2.10;;;30.50;99.90;;;;;;4796631;28;20271;-73
2021/06/16 12:17:58;;;;;;;11.32;1.65;;;30.40;99.90;;;;;;4807354;28;20188;-76
2021/06/16 12:20:21;;;;;;;20.73;2.90;;;;;;;;;;4798131;28;20192;-77
2021/06/16 12:22:44;;;;;;;13.65;1.92;;;;;;;;;;4798302;28;20196;-77
2021/06/16 12:25:08;;;;;;;10.18;1.52;;;31.00;99.90;;;;;;4795595;28;20247;-74
2021/06/16 12:27:33;;;;;;;26.15;3.58;;;31.90;99.90;;;;;;4793665;28;20199;-75
2021/06/16 12:29:56;;;;;;;10.68;1.52;;;;;;;;;;4802096;28;20196;-76
2021/06/16 12:32:29;;;;;;;16.13;2.28;;;34.60;99.90;;;;;;4801641;28;20188;-75
2021/06/16 12:35:06;;;;;;;14.80;2.15;;;35.90;99.90;;;;;;4800452;28;20212;-77
2021/06/16 12:37:29;;;;;;;17.70;2.55;;;;;;;;;;4800480;28;20824;-78
2021/06/16 12:39:56;;;;;;;12.63;1.80;;;39.50;99.90;;;;;;4801986;28;20192;-77
2021/06/16 12:42:21;;;;;;;16.70;2.38;;;41.40;99.90;;;;;;4801980;28;20184;-78
2021/06/16 12:44:44;;;;;;;23.70;3.28;;;;;;;;;;4801094;28;20239;-77
2021/06/16 12:47:08;;;;;;;15.38;2.15;;;44.80;99.90;;;;;;4800712;28;20184;-77
2021/06/16 12:49:32;;;;;;;15.73;2.25;;;45.80;99.90;;;;;;4793591;28;20223;-80
2021/06/16 12:51:56;;;;;;;10.40;1.48;;;45.80;99.90;;;;;;4801909;28;20547;-79
2021/06/16 12:54:32;;;;;;;16.75;2.38;;;45.40;99.90;;;;;;4808233;28;20367;-77
2021/06/16 12:57:10;;;;;;;14.02;2.08;;;44.60;99.90;;;;;;4800897;28;20736;-77
2021/06/16 12:59:36;;;;;;;14.55;2.03;;;43.40;99.90;;;;;;4801422;28;20183;-76
2021/06/16 13:01:59;;;;;;;16.05;2.33;;;;;;;;;;4799472;28;21629;-78
2021/06/16 13:04:43;;;;;;;13.68;2.03;;;40.70;99.90;;;;;;4800919;28;20196;-75
2021/06/16 13:07:06;;;;;;;15.40;2.28;;;;;;;;;;4801402;28;20184;-78
2021/06/16 13:09:28;;;;;;;13.00;1.83;;;;;;;;;;4801968;28;20184;-75